createdAt,value
2022-07-29T00:00:01.349Z,16.69
2022-07-29T00:01:19.646Z,16.93
2022-07-29T00:02:30.311Z,16.87
2022-07-29T00:03:38.519Z,16.55
2022-07-29T00:04:51.100Z,16.67
2022-07-29T00:06:03.158Z,16.82
2022-07-29T00:07:14.291Z,16.47
2022-07-29T00:08:22.601Z,16.48
2022-07-29T00:09:32.500Z,16.47
2022-07-29T00:10:40.202Z,16.70
2022-07-29T00:11:48.565Z,16.92
2022-07-29T00:12:58.481Z,16.55
2022-07-29T00:14:06.499Z,16.15
2022-07-29T00:15:14.850Z,16.52
2022-07-29T00:16:23.328Z,16.66
2022-07-29T00:17:34.372Z,16.46
2022-07-29T00:18:42.185Z,15.46
2022-07-29T00:19:50.553Z,15.16
2022-07-29T00:21:01.255Z,15.30
2022-07-29T00:22:12.671Z,15.64
2022-07-29T00:23:23.991Z,16.28
2022-07-29T00:24:32.302Z,16.28
2022-07-29T00:25:43.007Z,16.14
2022-07-29T00:26:54.742Z,16.18
2022-07-29T00:28:06.509Z,16.09
2022-07-29T00:30:46.225Z,16.42
2022-07-29T00:31:56.068Z,16.95
2022-07-29T00:33:08.932Z,17.32
2022-07-29T00:34:41.105Z,17.37
2022-07-29T00:35:50.185Z,16.86
2022-07-29T00:36:57.885Z,17.02
2022-07-29T00:38:05.716Z,17.35
2022-07-29T00:39:15.713Z,17.37
2022-07-29T00:40:26.460Z,17.46
2022-07-29T00:41:33.984Z,17.57
2022-07-29T00:42:49.774Z,17.10
2022-07-29T00:44:02.164Z,17.11
2022-07-29T00:45:10.388Z,17.11
2022-07-29T00:46:20.877Z,17.09
2022-07-29T00:47:28.576Z,17.13
2022-07-29T00:48:37.348Z,17.38
2022-07-29T00:49:48.254Z,17.73
2022-07-29T00:50:57.183Z,17.86
2022-07-29T00:52:08.407Z,17.64
2022-07-29T00:53:16.873Z,17.82
2022-07-29T00:54:24.654Z,18.29
2022-07-29T00:55:32.586Z,18.40
2022-07-29T00:56:40.660Z,18.69
2022-07-29T00:57:49.602Z,18.72
2022-07-29T00:58:57.591Z,18.83
2022-07-29T01:00:08.027Z,19.33
2022-07-29T01:01:17.249Z,19.50
2022-07-29T01:02:25.785Z,19.51
2022-07-29T01:03:36.529Z,19.73
2022-07-29T01:04:48.683Z,19.79
2022-07-29T01:06:00.353Z,19.92
2022-07-29T01:07:11.916Z,19.73
2022-07-29T01:08:23.255Z,19.73
2022-07-29T01:09:43.086Z,20.06
2022-07-29T01:10:55.984Z,20.57
2022-07-29T01:12:04.858Z,21.05
2022-07-29T01:13:16.138Z,21.25
2022-07-29T01:14:26.573Z,21.44
2022-07-29T01:15:35.939Z,21.50
2022-07-29T01:16:55.055Z,21.32
2022-07-29T01:18:36.084Z,21.31
2022-07-29T01:19:49.603Z,21.19
2022-07-29T01:21:20.174Z,20.74
2022-07-29T01:22:38.714Z,20.72
2022-07-29T01:24:23.771Z,20.68
2022-07-29T01:25:57.727Z,20.79
2022-07-29T01:27:43.278Z,20.31
2022-07-29T01:28:56.177Z,20.36
2022-07-29T01:30:05.433Z,20.34
2022-07-29T01:31:25.360Z,20.47
2022-07-29T01:32:38.816Z,20.55
2022-07-29T01:33:51.002Z,20.57
2022-07-29T01:35:28.915Z,20.59
2022-07-29T01:36:45.232Z,20.71
2022-07-29T01:38:00.939Z,20.48
2022-07-29T01:39:16.275Z,20.70
2022-07-29T01:40:26.104Z,20.74
2022-07-29T01:41:34.017Z,20.81
2022-07-29T01:42:48.264Z,20.95
2022-07-29T01:44:05.127Z,21.07
2022-07-29T01:45:35.761Z,21.05
2022-07-29T01:46:44.278Z,21.57
2022-07-29T01:48:05.755Z,21.78
2022-07-29T01:49:14.842Z,22.19
2022-07-29T01:50:22.533Z,22.64
2022-07-29T01:51:38.784Z,22.85
2022-07-29T01:52:53.085Z,23.20
2022-07-29T01:54:17.700Z,23.63
2022-07-29T01:55:30.850Z,23.93
2022-07-29T01:56:41.887Z,24.08
2022-07-29T01:57:52.638Z,24.00
2022-07-29T01:59:05.361Z,24.02
2022-07-29T02:00:13.983Z,24.16
2022-07-29T02:01:23.488Z,24.53
2022-07-29T02:02:35.885Z,24.43
2022-07-29T02:03:44.595Z,24.64
2022-07-29T02:04:51.704Z,24.77
2022-07-29T02:06:01.407Z,24.99
2022-07-29T02:07:09.914Z,25.03
2022-07-29T02:08:17.520Z,25.08
2022-07-29T02:09:26.503Z,25.02
2022-07-29T02:10:34.603Z,25.05
2022-07-29T02:11:43.337Z,25.19
2022-07-29T02:12:53.885Z,25.22
2022-07-29T02:14:03.529Z,25.24
2022-07-29T02:15:14.813Z,25.28
2022-07-29T02:16:24.600Z,25.25
2022-07-29T02:17:45.676Z,25.41
2022-07-29T02:18:58.468Z,25.56
2022-07-29T02:20:07.817Z,25.61
2022-07-29T02:21:15.920Z,25.70
2022-07-29T02:22:24.305Z,25.69
2022-07-29T02:23:32.600Z,25.73
2022-07-29T02:25:01.178Z,25.85
2022-07-29T02:26:12.177Z,25.98
2022-07-29T02:27:23.203Z,26.03
2022-07-29T02:28:31.604Z,25.93
2022-07-29T02:29:39.119Z,25.81
2022-07-29T02:30:47.635Z,25.78
2022-07-29T02:31:56.214Z,25.78
2022-07-29T02:33:04.983Z,25.60
2022-07-29T02:34:13.312Z,25.39
2022-07-29T02:35:23.795Z,24.80
2022-07-29T02:36:31.158Z,24.52
2022-07-29T02:37:39.263Z,24.54
2022-07-29T02:38:58.042Z,24.96
2022-07-29T02:40:05.790Z,25.28
2022-07-29T02:41:16.316Z,25.52
2022-07-29T02:42:24.020Z,25.72
2022-07-29T02:43:31.933Z,25.66
2022-07-29T02:44:39.557Z,25.50
2022-07-29T02:45:46.938Z,25.52
2022-07-29T02:47:15.386Z,25.56
2022-07-29T02:48:28.364Z,25.54
2022-07-29T02:50:17.610Z,25.56
2022-07-29T02:51:52.714Z,25.26
2022-07-29T02:53:28.504Z,25.24
2022-07-29T02:55:10.457Z,25.26
2022-07-29T02:56:19.646Z,25.42
2022-07-29T02:57:32.230Z,25.68
2022-07-29T02:58:57.201Z,25.74
2022-07-29T03:00:11.294Z,25.92
2022-07-29T03:01:24.684Z,26.06
2022-07-29T03:02:32.288Z,26.19
2022-07-29T03:03:41.728Z,26.18
2022-07-29T03:04:51.986Z,26.32
2022-07-29T03:06:01.132Z,26.49
2022-07-29T03:07:10.430Z,26.69
2022-07-29T03:08:19.590Z,26.78
2022-07-29T03:09:28.206Z,26.81
2022-07-29T03:10:36.277Z,26.77
2022-07-29T03:11:49.251Z,26.83
2022-07-29T03:13:02.444Z,26.52
2022-07-29T03:14:12.428Z,25.91
2022-07-29T03:15:19.927Z,25.70
2022-07-29T03:16:27.159Z,25.65
2022-07-29T03:17:34.498Z,25.67
2022-07-29T03:18:41.760Z,25.45
2022-07-29T03:19:51.566Z,25.35
2022-07-29T03:20:59.082Z,25.43
2022-07-29T03:22:07.010Z,25.38
2022-07-29T03:23:20.843Z,25.31
2022-07-29T03:24:40.066Z,25.35
2022-07-29T03:25:47.349Z,25.45
2022-07-29T03:26:54.543Z,25.52
2022-07-29T03:28:03.941Z,25.60
2022-07-29T03:29:14.920Z,25.57
2022-07-29T03:30:24.262Z,25.80
2022-07-29T03:31:33.806Z,25.96
2022-07-29T03:32:42.074Z,26.08
2022-07-29T03:33:54.938Z,26.03
2022-07-29T03:35:04.209Z,26.08
2022-07-29T03:36:16.333Z,26.14
2022-07-29T03:37:27.029Z,26.09
2022-07-29T03:38:36.611Z,26.24
2022-07-29T03:39:45.523Z,26.29
2022-07-29T03:41:04.663Z,26.48
2022-07-29T03:42:15.453Z,26.73
2022-07-29T03:43:24.766Z,26.81
2022-07-29T03:44:32.601Z,27.10
2022-07-29T03:45:41.061Z,27.22
2022-07-29T03:46:49.990Z,27.53
2022-07-29T03:48:02.852Z,27.57
2022-07-29T03:49:12.516Z,27.76
2022-07-29T03:50:21.954Z,27.84
2022-07-29T03:51:33.636Z,28.15
2022-07-29T03:52:45.423Z,28.61
2022-07-29T03:53:53.810Z,28.93
2022-07-29T03:55:02.311Z,28.76
2022-07-29T03:56:11.513Z,29.05
2022-07-29T03:57:20.737Z,29.33
2022-07-29T03:58:31.339Z,29.45
2022-07-29T03:59:40.931Z,29.32
2022-07-29T04:00:53.949Z,29.75
2022-07-29T04:02:07.681Z,29.79
2022-07-29T04:03:18.454Z,29.75
2022-07-29T04:04:26.531Z,29.82
2022-07-29T04:05:37.228Z,30.25
2022-07-29T04:06:49.213Z,30.19
2022-07-29T04:07:57.911Z,30.50
2022-07-29T04:09:06.369Z,30.68
2022-07-29T04:10:30.055Z,31.32
2022-07-29T04:11:59.262Z,32.40
2022-07-29T04:13:11.881Z,32.72
2022-07-29T04:14:19.519Z,33.08
2022-07-29T04:15:26.939Z,33.53
2022-07-29T04:16:40.430Z,33.81
2022-07-29T04:17:48.954Z,33.70
2022-07-29T04:18:59.949Z,33.78
2022-07-29T04:20:07.868Z,33.47
2022-07-29T04:21:15.308Z,33.03
2022-07-29T04:22:25.797Z,33.10
2022-07-29T04:23:35.952Z,33.37
2022-07-29T04:25:04.233Z,33.68
2022-07-29T04:26:13.379Z,34.15
2022-07-29T04:27:20.838Z,34.58
2022-07-29T04:28:28.611Z,34.81
2022-07-29T04:29:38.134Z,34.90
2022-07-29T04:31:07.960Z,35.16
2022-07-29T04:32:15.056Z,35.17
2022-07-29T04:33:23.124Z,35.20
2022-07-29T04:34:32.678Z,35.37
2022-07-29T04:35:49.924Z,35.50
2022-07-29T04:36:59.295Z,35.66
2022-07-29T04:38:07.038Z,36.11
2022-07-29T04:39:22.172Z,36.33
2022-07-29T04:40:32.770Z,36.50
2022-07-29T04:41:43.012Z,36.77
2022-07-29T04:42:50.358Z,36.93
2022-07-29T04:43:57.774Z,37.30
2022-07-29T04:45:06.180Z,37.63
2022-07-29T04:46:15.536Z,37.74
2022-07-29T04:47:22.827Z,37.78
2022-07-29T04:48:30.144Z,37.86
2022-07-29T04:49:41.520Z,38.24
2022-07-29T04:50:48.626Z,38.13
2022-07-29T04:51:55.916Z,38.18
2022-07-29T04:53:06.265Z,38.17
2022-07-29T04:54:14.706Z,38.62
2022-07-29T04:55:24.870Z,38.69
2022-07-29T04:56:32.098Z,38.55
2022-07-29T04:57:39.564Z,38.70
2022-07-29T04:58:48.234Z,38.94
2022-07-29T04:59:58.061Z,39.18
2022-07-29T05:01:06.081Z,39.30
2022-07-29T05:02:13.246Z,39.44
2022-07-29T05:03:22.129Z,39.62
2022-07-29T05:04:30.957Z,39.47
2022-07-29T05:05:41.966Z,39.57
2022-07-29T05:06:50.907Z,39.89
2022-07-29T05:07:59.052Z,40.09
2022-07-29T05:09:07.065Z,40.23
2022-07-29T05:10:17.306Z,40.45
2022-07-29T05:11:30.008Z,40.64
2022-07-29T05:12:37.829Z,40.79
2022-07-29T05:13:47.042Z,40.90
2022-07-29T05:14:54.679Z,40.93
2022-07-29T05:16:02.379Z,40.94
2022-07-29T05:17:12.318Z,41.09
2022-07-29T05:18:21.274Z,41.38
2022-07-29T05:19:39.642Z,41.28
2022-07-29T05:20:47.337Z,41.32
2022-07-29T05:21:57.414Z,41.44
2022-07-29T05:23:06.593Z,41.78
2022-07-29T05:24:15.671Z,41.99
2022-07-29T05:25:23.193Z,41.89
2022-07-29T05:26:30.810Z,42.17
2022-07-29T05:27:39.779Z,42.38
2022-07-29T05:28:49.716Z,42.31
2022-07-29T05:29:58.658Z,42.11
2022-07-29T05:31:06.425Z,42.44
2022-07-29T05:32:15.627Z,42.46
2022-07-29T05:33:35.400Z,42.37
2022-07-29T05:34:51.202Z,42.68
2022-07-29T05:36:02.243Z,42.62
2022-07-29T05:37:10.946Z,42.78
2022-07-29T05:38:21.118Z,43.23
2022-07-29T05:39:49.074Z,43.02
2022-07-29T05:41:02.305Z,43.11
2022-07-29T05:42:14.157Z,43.41
2022-07-29T05:43:25.918Z,43.58
2022-07-29T05:44:33.993Z,43.58
2022-07-29T05:45:49.522Z,43.57
2022-07-29T05:46:58.496Z,43.80
2022-07-29T05:48:06.379Z,44.05
2022-07-29T05:49:27.305Z,44.04
2022-07-29T05:50:37.016Z,44.02
2022-07-29T05:51:59.937Z,44.32
2022-07-29T05:53:18.952Z,44.62
2022-07-29T05:54:29.548Z,44.80
2022-07-29T05:55:37.172Z,44.81
2022-07-29T05:56:49.034Z,45.18
2022-07-29T05:57:58.015Z,45.33
2022-07-29T05:59:07.450Z,45.20
2022-07-29T06:00:26.691Z,45.10
2022-07-29T06:01:42.430Z,45.00
2022-07-29T06:02:54.950Z,45.09
2022-07-29T06:04:03.702Z,45.50
2022-07-29T06:05:16.373Z,45.37
2022-07-29T06:06:27.252Z,45.60
2022-07-29T06:07:38.823Z,45.69
2022-07-29T06:09:00.152Z,46.15
2022-07-29T06:10:27.082Z,46.02
2022-07-29T06:11:37.868Z,46.49
2022-07-29T06:12:48.532Z,46.53
2022-07-29T06:13:56.930Z,46.85
2022-07-29T06:15:06.048Z,47.18
2022-07-29T06:16:16.677Z,47.46
2022-07-29T06:18:00.597Z,47.36
2022-07-29T06:19:12.986Z,46.91
2022-07-29T06:20:20.651Z,47.31
2022-07-29T06:21:35.988Z,47.63
2022-07-29T06:22:53.206Z,47.75
2022-07-29T06:24:00.356Z,48.46
2022-07-29T06:25:09.058Z,48.11
2022-07-29T06:26:16.377Z,48.13
2022-07-29T06:27:25.483Z,48.48
2022-07-29T06:28:36.356Z,48.36
2022-07-29T06:29:44.093Z,48.80
2022-07-29T06:30:53.975Z,49.13
2022-07-29T06:32:03.834Z,49.52
2022-07-29T06:33:12.936Z,49.83
2022-07-29T06:34:22.841Z,49.71
2022-07-29T06:35:44.712Z,49.65
2022-07-29T06:37:15.403Z,49.69
2022-07-29T06:38:33.833Z,49.52
2022-07-29T06:39:44.275Z,49.91
2022-07-29T06:41:11.448Z,49.83
2022-07-29T06:42:24.012Z,49.86
2022-07-29T06:43:51.796Z,49.83
2022-07-29T06:45:09.321Z,49.74
2022-07-29T06:46:20.521Z,50.02
2022-07-29T06:47:31.599Z,50.23
2022-07-29T06:48:41.173Z,50.07
2022-07-29T06:49:48.398Z,49.97
2022-07-29T06:50:56.312Z,50.20
2022-07-29T06:52:06.270Z,50.47
2022-07-29T06:53:16.688Z,50.98
2022-07-29T06:54:27.513Z,51.03
2022-07-29T06:55:35.725Z,51.55
2022-07-29T06:56:45.156Z,51.58
2022-07-29T06:57:55.706Z,51.73
2022-07-29T06:59:05.539Z,52.10
2022-07-29T07:00:14.732Z,51.90
2022-07-29T07:01:25.708Z,51.73
2022-07-29T07:02:32.831Z,51.65
2022-07-29T07:03:40.722Z,51.50
2022-07-29T07:04:50.866Z,51.34
2022-07-29T07:06:01.592Z,51.22
2022-07-29T07:07:08.926Z,51.35
2022-07-29T07:08:16.358Z,51.55
2022-07-29T07:09:26.564Z,51.57
2022-07-29T07:10:52.005Z,51.79
2022-07-29T07:12:02.852Z,52.03
2022-07-29T07:13:13.249Z,51.77
2022-07-29T07:14:23.270Z,51.68
2022-07-29T07:15:38.865Z,51.98
2022-07-29T07:16:50.809Z,52.96
2022-07-29T07:18:03.985Z,53.68
2022-07-29T07:19:14.337Z,53.57
2022-07-29T07:20:24.212Z,53.58
2022-07-29T07:21:36.361Z,53.99
2022-07-29T07:22:46.411Z,54.01
2022-07-29T07:23:56.552Z,53.47
2022-07-29T07:25:06.392Z,53.55
2022-07-29T07:26:13.574Z,53.36
2022-07-29T07:27:21.898Z,53.29
2022-07-29T07:28:33.073Z,53.15
2022-07-29T07:29:44.186Z,52.98
2022-07-29T07:30:55.040Z,53.61
2022-07-29T07:32:06.175Z,53.95
2022-07-29T07:33:17.336Z,54.10
2022-07-29T07:34:29.769Z,53.98
2022-07-29T07:35:40.516Z,53.99
2022-07-29T07:36:51.772Z,53.90
2022-07-29T07:38:02.411Z,53.99
2022-07-29T07:39:11.211Z,54.13
2022-07-29T07:40:20.321Z,54.13
2022-07-29T07:41:32.515Z,54.10
2022-07-29T07:42:41.539Z,54.02
2022-07-29T07:43:53.615Z,53.80
2022-07-29T07:45:13.630Z,53.71
2022-07-29T07:46:27.460Z,53.56
2022-07-29T07:47:38.780Z,53.40
2022-07-29T07:48:51.658Z,53.87
2022-07-29T07:50:04.070Z,53.94
2022-07-29T07:51:12.827Z,53.72
2022-07-29T07:52:21.219Z,54.45
2022-07-29T07:53:28.544Z,56.15
2022-07-29T07:54:38.405Z,57.19
2022-07-29T07:57:20.815Z,59.00
2022-07-29T07:58:28.916Z,59.14
2022-07-29T07:59:41.254Z,59.30
2022-07-29T08:00:51.066Z,59.03
2022-07-29T08:02:01.038Z,59.72
2022-07-29T08:03:17.117Z,60.04
2022-07-29T08:04:28.892Z,59.84
2022-07-29T08:05:40.079Z,59.98
2022-07-29T08:06:47.270Z,60.55
2022-07-29T08:07:59.228Z,61.08
2022-07-29T08:09:28.097Z,61.00
2022-07-29T08:10:58.937Z,60.49
2022-07-29T08:12:10.362Z,60.32
2022-07-29T08:13:19.471Z,60.41
2022-07-29T08:14:31.026Z,60.11
2022-07-29T08:15:38.573Z,60.05
2022-07-29T08:16:46.052Z,60.03
2022-07-29T08:17:54.331Z,59.68
2022-07-29T08:19:03.455Z,59.94
2022-07-29T08:20:10.599Z,60.58
2022-07-29T08:21:18.498Z,60.74
2022-07-29T08:22:25.660Z,61.48
2022-07-29T08:23:54.358Z,61.66
2022-07-29T08:25:09.699Z,61.63
2022-07-29T08:26:18.551Z,61.74
2022-07-29T08:27:43.533Z,61.23
2022-07-29T08:28:56.167Z,60.81
2022-07-29T08:30:05.118Z,60.84
2022-07-29T08:31:13.423Z,61.05
2022-07-29T08:32:43.404Z,61.21
2022-07-29T08:33:51.475Z,61.16
2022-07-29T08:34:58.585Z,60.95
2022-07-29T08:36:08.663Z,60.53
2022-07-29T08:37:17.950Z,60.23
2022-07-29T08:38:28.442Z,59.82
2022-07-29T08:39:39.066Z,59.40
2022-07-29T08:40:49.518Z,59.18
2022-07-29T08:42:00.096Z,58.86
2022-07-29T08:43:10.979Z,58.72
2022-07-29T08:44:30.827Z,58.56
2022-07-29T08:45:55.491Z,58.41
2022-07-29T08:47:05.856Z,58.25
2022-07-29T08:48:17.090Z,58.19
2022-07-29T08:49:27.705Z,58.88
2022-07-29T08:50:38.475Z,58.77
2022-07-29T08:51:49.239Z,58.78
2022-07-29T08:53:00.352Z,58.87
2022-07-29T08:54:11.650Z,59.16
2022-07-29T08:55:21.748Z,59.60
2022-07-29T08:56:32.663Z,59.55
2022-07-29T08:57:43.371Z,59.41
2022-07-29T08:59:01.583Z,59.38
2022-07-29T09:00:16.317Z,59.27
2022-07-29T09:01:35.204Z,58.95
2022-07-29T09:02:48.409Z,59.17
2022-07-29T09:03:59.653Z,60.20
2022-07-29T09:05:08.390Z,60.15
2022-07-29T09:06:21.122Z,60.07
2022-07-29T09:07:34.601Z,60.45
2022-07-29T09:08:43.193Z,60.96
2022-07-29T09:09:51.348Z,61.60
2022-07-29T09:11:04.108Z,61.83
2022-07-29T09:12:29.466Z,62.48
2022-07-29T09:13:37.771Z,63.02
2022-07-29T09:14:44.838Z,63.34
2022-07-29T09:15:52.556Z,63.61
2022-07-29T09:17:03.824Z,63.68
2022-07-29T09:18:20.421Z,63.82
2022-07-29T09:19:45.418Z,64.20
2022-07-29T09:21:15.057Z,64.22
2022-07-29T09:22:33.215Z,64.62
2022-07-29T09:23:42.136Z,64.67
2022-07-29T09:24:50.034Z,64.50
2022-07-29T09:25:58.065Z,64.96
2022-07-29T09:27:05.345Z,64.96
2022-07-29T09:28:18.668Z,65.16
2022-07-29T09:29:27.528Z,64.89
2022-07-29T09:30:37.745Z,64.76
2022-07-29T09:31:47.396Z,64.92
2022-07-29T09:33:03.193Z,64.88
2022-07-29T09:34:14.163Z,64.89
2022-07-29T09:35:29.023Z,64.57
2022-07-29T09:36:49.798Z,64.29
2022-07-29T09:38:00.116Z,64.07
2022-07-29T09:39:07.909Z,64.41
2022-07-29T09:40:19.312Z,64.80
2022-07-29T09:41:27.393Z,64.85
2022-07-29T09:42:36.276Z,65.42
2022-07-29T09:44:00.057Z,66.31
2022-07-29T09:45:08.155Z,66.84
2022-07-29T09:46:21.232Z,67.01
2022-07-29T09:47:51.316Z,66.90
2022-07-29T09:49:30.748Z,66.56
2022-07-29T09:50:44.536Z,66.26
2022-07-29T09:52:03.534Z,66.05
2022-07-29T09:53:14.085Z,66.61
2022-07-29T09:54:38.875Z,66.76
2022-07-29T09:55:59.357Z,67.06
2022-07-29T09:57:07.985Z,67.19
2022-07-29T09:58:27.268Z,66.97
2022-07-29T09:59:36.635Z,66.91
2022-07-29T10:00:58.877Z,66.50
2022-07-29T10:02:21.964Z,66.13
2022-07-29T10:03:33.362Z,66.07
2022-07-29T10:04:43.760Z,65.96
2022-07-29T10:06:15.660Z,65.84
2022-07-29T10:07:24.061Z,66.18
2022-07-29T10:08:32.876Z,66.31
2022-07-29T10:09:40.204Z,66.34
2022-07-29T10:10:47.605Z,66.29
2022-07-29T10:12:08.439Z,66.38
2022-07-29T10:13:16.804Z,66.52
2022-07-29T10:14:26.275Z,66.65
2022-07-29T10:15:37.784Z,66.51
2022-07-29T10:16:47.170Z,66.55
2022-07-29T10:17:55.231Z,66.23
2022-07-29T10:19:03.511Z,66.19
2022-07-29T10:20:16.290Z,66.19
2022-07-29T10:21:35.904Z,66.24
2022-07-29T10:22:54.095Z,66.26
2022-07-29T10:24:04.032Z,66.56
2022-07-29T10:25:12.634Z,66.52
2022-07-29T10:26:20.004Z,66.92
2022-07-29T10:27:27.584Z,67.08
2022-07-29T10:28:41.139Z,66.94
2022-07-29T10:29:48.790Z,66.90
2022-07-29T10:31:01.733Z,66.80
2022-07-29T10:32:38.241Z,66.76
2022-07-29T10:34:33.218Z,67.06
2022-07-29T10:36:05.065Z,67.07
2022-07-29T10:37:49.644Z,66.89
2022-07-29T10:39:05.625Z,66.90
2022-07-29T10:41:06.744Z,67.18
2022-07-29T10:42:29.662Z,67.44
2022-07-29T10:43:46.891Z,67.36
2022-07-29T10:44:59.230Z,67.28
2022-07-29T10:46:07.670Z,67.41
2022-07-29T10:47:26.234Z,67.35
2022-07-29T10:48:35.131Z,67.44
2022-07-29T10:49:42.404Z,67.61
2022-07-29T10:51:07.256Z,67.78
2022-07-29T10:52:14.760Z,67.91
2022-07-29T10:53:22.160Z,67.88
2022-07-29T10:54:49.899Z,67.88
2022-07-29T10:55:57.636Z,67.86
2022-07-29T10:57:25.610Z,67.81
2022-07-29T10:59:32.333Z,67.92
2022-07-29T11:00:45.404Z,67.90
2022-07-29T11:01:59.878Z,67.88
2022-07-29T11:03:57.597Z,67.95
2022-07-29T11:05:12.596Z,67.86
2022-07-29T11:06:26.666Z,67.68
2022-07-29T11:07:42.629Z,67.72
2022-07-29T11:09:35.102Z,67.42
2022-07-29T11:10:47.202Z,67.43
2022-07-29T11:11:57.335Z,67.45
2022-07-29T11:13:09.892Z,67.70
2022-07-29T11:14:26.539Z,67.91
2022-07-29T11:15:57.654Z,67.95
2022-07-29T11:17:08.034Z,67.95
2022-07-29T11:18:17.398Z,68.15
2022-07-29T11:19:30.401Z,68.11
2022-07-29T11:20:40.496Z,67.94
2022-07-29T11:21:55.042Z,67.97
2022-07-29T11:23:33.799Z,67.74
2022-07-29T11:24:50.323Z,67.84
2022-07-29T11:26:31.755Z,67.98
2022-07-29T11:27:41.831Z,67.93
2022-07-29T11:29:18.412Z,68.12
2022-07-29T11:30:51.211Z,68.19
2022-07-29T11:31:59.498Z,68.44
2022-07-29T11:33:07.282Z,68.33
2022-07-29T11:34:34.877Z,68.23
2022-07-29T11:35:45.112Z,68.35
2022-07-29T11:37:14.312Z,68.56
2022-07-29T11:38:34.138Z,68.76
2022-07-29T11:39:48.952Z,69.09
2022-07-29T11:41:27.410Z,69.25
2022-07-29T11:42:41.888Z,69.40
2022-07-29T11:44:01.283Z,69.35
2022-07-29T11:45:44.361Z,69.70
2022-07-29T11:49:55.815Z,70.02
2022-07-29T11:51:13.880Z,70.23
2022-07-29T11:52:23.662Z,70.37
2022-07-29T11:53:32.979Z,70.38
2022-07-29T11:54:57.798Z,70.28
2022-07-29T11:56:09.650Z,70.13
2022-07-29T11:57:36.320Z,69.89
2022-07-29T11:58:48.158Z,70.09
2022-07-29T11:59:55.686Z,69.97
2022-07-29T12:01:07.105Z,69.88
2022-07-29T12:02:36.485Z,69.91
2022-07-29T12:03:49.185Z,70.12
2022-07-29T12:04:59.157Z,69.82
2022-07-29T12:06:25.983Z,69.44
2022-07-29T12:07:03.764Z,69.72
2022-07-29T12:07:38.061Z,69.06
2022-07-29T12:08:45.939Z,68.87
2022-07-29T12:09:59.381Z,68.86
2022-07-29T12:11:08.493Z,68.77
2022-07-29T12:12:18.812Z,68.43
2022-07-29T12:13:37.728Z,68.49
2022-07-29T12:14:50.520Z,68.98
2022-07-29T12:16:03.935Z,69.32
2022-07-29T12:17:31.932Z,69.40
2022-07-29T12:18:42.903Z,69.43
2022-07-29T12:19:53.290Z,69.57
2022-07-29T12:21:05.129Z,69.56
2022-07-29T12:22:15.864Z,69.63
2022-07-29T12:23:24.359Z,69.73
2022-07-29T12:24:47.747Z,69.78
2022-07-29T12:25:56.042Z,69.75
2022-07-29T12:27:04.422Z,69.57
2022-07-29T12:28:15.702Z,69.54
2022-07-29T12:29:36.240Z,70.08
2022-07-29T12:30:57.561Z,70.57
2022-07-29T12:32:14.775Z,70.77
2022-07-29T12:33:30.294Z,70.77
2022-07-29T12:34:40.850Z,70.90
2022-07-29T12:36:06.203Z,70.88
2022-07-29T12:37:18.867Z,70.97
2022-07-29T12:38:28.865Z,71.02
2022-07-29T12:39:39.689Z,70.99
2022-07-29T12:40:48.898Z,71.33
2022-07-29T12:42:04.327Z,70.92
2022-07-29T12:43:23.574Z,70.81
2022-07-29T12:44:53.865Z,71.25
2022-07-29T12:46:13.638Z,71.34
2022-07-29T12:47:22.716Z,71.14
2022-07-29T12:48:46.279Z,71.21
2022-07-29T12:50:26.131Z,71.40
2022-07-29T12:51:39.008Z,72.04
2022-07-29T12:52:46.575Z,71.90
2022-07-29T12:54:12.499Z,71.81
2022-07-29T12:55:56.971Z,71.97
2022-07-29T12:57:04.840Z,72.43
2022-07-29T12:58:11.987Z,72.46
2022-07-29T12:59:25.761Z,72.61
2022-07-29T13:00:36.741Z,72.56
2022-07-29T13:01:54.582Z,72.37
2022-07-29T13:03:06.606Z,72.13
2022-07-29T13:04:34.984Z,72.04
2022-07-29T13:05:49.712Z,72.17
2022-07-29T13:07:10.485Z,72.14
2022-07-29T13:08:29.640Z,72.00
2022-07-29T13:09:48.669Z,72.02
2022-07-29T13:10:57.257Z,72.06
2022-07-29T13:12:04.724Z,72.31
2022-07-29T13:13:20.606Z,72.40
2022-07-29T13:14:45.704Z,72.55
2022-07-29T13:16:13.261Z,72.23
2022-07-29T13:17:32.814Z,72.15
2022-07-29T13:18:43.580Z,71.90
2022-07-29T13:20:26.645Z,71.93
2022-07-29T13:21:34.376Z,71.91
2022-07-29T13:22:42.451Z,71.80
2022-07-29T13:23:50.957Z,72.16
2022-07-29T13:25:01.206Z,72.46
2022-07-29T13:26:14.601Z,72.32
2022-07-29T13:27:23.426Z,72.36
2022-07-29T13:28:31.617Z,72.52
2022-07-29T13:29:42.256Z,72.42
2022-07-29T13:30:49.646Z,72.09
2022-07-29T13:31:59.298Z,72.30
2022-07-29T13:33:09.775Z,72.37
2022-07-29T13:34:17.703Z,72.36
2022-07-29T13:35:25.138Z,72.26
2022-07-29T13:36:35.216Z,72.48
2022-07-29T13:37:45.459Z,72.47
2022-07-29T13:38:55.408Z,72.45
2022-07-29T13:40:03.360Z,72.36
2022-07-29T13:41:13.769Z,72.12
2022-07-29T13:42:21.896Z,72.13
2022-07-29T13:43:30.548Z,72.03
2022-07-29T13:44:38.339Z,72.07
2022-07-29T13:45:47.094Z,71.94
2022-07-29T13:46:58.010Z,71.77
2022-07-29T13:48:08.788Z,71.87
2022-07-29T13:49:19.715Z,71.84
2022-07-29T13:50:29.492Z,71.74
2022-07-29T13:51:38.626Z,71.60
2022-07-29T13:52:46.793Z,71.41
2022-07-29T13:53:55.750Z,71.35
2022-07-29T13:55:08.476Z,71.29
2022-07-29T13:56:19.578Z,71.14
2022-07-29T13:57:31.423Z,71.15
2022-07-29T13:58:42.488Z,71.19
2022-07-29T13:59:54.195Z,71.43
2022-07-29T14:01:04.237Z,71.68
2022-07-29T14:02:15.616Z,71.76
2022-07-29T14:03:23.613Z,71.52
2022-07-29T14:04:32.505Z,71.15
2022-07-29T14:05:44.267Z,70.78
2022-07-29T14:06:53.634Z,70.70
2022-07-29T14:08:04.157Z,70.39
2022-07-29T14:09:12.822Z,70.17
2022-07-29T14:10:21.850Z,70.25
2022-07-29T14:11:33.681Z,70.31
2022-07-29T14:12:44.114Z,70.30
2022-07-29T14:13:51.977Z,70.26
2022-07-29T14:15:01.579Z,70.35
2022-07-29T14:16:13.190Z,70.13
2022-07-29T14:17:22.410Z,70.07
2022-07-29T14:18:31.590Z,69.90
2022-07-29T14:19:42.783Z,69.99
2022-07-29T14:20:52.155Z,70.12
2022-07-29T14:22:00.904Z,69.93
2022-07-29T14:23:14.362Z,69.89
2022-07-29T14:24:26.283Z,69.81
2022-07-29T14:25:33.340Z,69.73
2022-07-29T14:26:44.359Z,69.88
2022-07-29T14:27:55.623Z,69.59
2022-07-29T14:29:09.567Z,69.29
2022-07-29T14:30:17.356Z,68.98
2022-07-29T14:31:28.242Z,68.73
2022-07-29T14:32:38.650Z,68.60
2022-07-29T14:33:49.122Z,68.35
2022-07-29T14:34:57.037Z,68.20
2022-07-29T14:36:04.811Z,67.74
2022-07-29T14:37:16.254Z,67.43
2022-07-29T14:38:28.575Z,66.79
2022-07-29T14:39:43.056Z,66.38
2022-07-29T14:40:56.343Z,66.24
2022-07-29T14:42:07.843Z,66.05
2022-07-29T14:43:17.740Z,65.91
2022-07-29T14:44:33.369Z,65.90
2022-07-29T14:45:43.311Z,65.65
2022-07-29T14:46:51.791Z,65.57
2022-07-29T14:48:02.299Z,65.55
2022-07-29T14:49:13.427Z,65.31
2022-07-29T14:50:31.516Z,65.06
2022-07-29T14:51:40.667Z,64.96
2022-07-29T14:52:48.658Z,65.07
2022-07-29T14:53:59.064Z,65.17
2022-07-29T14:55:19.646Z,65.06
2022-07-29T14:56:37.030Z,64.76
2022-07-29T14:57:47.126Z,64.11
2022-07-29T14:58:55.827Z,63.92
2022-07-29T15:00:04.029Z,63.61
2022-07-29T15:01:12.889Z,63.20
2022-07-29T15:02:21.927Z,62.92
2022-07-29T15:03:30.188Z,61.68
2022-07-29T15:04:43.003Z,62.07
2022-07-29T15:05:50.324Z,61.36
2022-07-29T15:06:58.570Z,61.07
2022-07-29T15:08:06.987Z,60.37
2022-07-29T15:09:16.947Z,59.34
2022-07-29T15:10:25.698Z,59.17
2022-07-29T15:11:38.942Z,58.61
2022-07-29T15:12:46.336Z,58.35
2022-07-29T15:13:55.873Z,58.57
2022-07-29T15:15:08.313Z,58.10
2022-07-29T15:16:16.664Z,58.20
2022-07-29T15:17:25.325Z,58.05
2022-07-29T15:18:33.782Z,57.84
2022-07-29T15:19:44.961Z,57.73
2022-07-29T15:20:56.188Z,57.74
2022-07-29T15:22:07.917Z,57.21
2022-07-29T15:23:16.386Z,57.16
2022-07-29T15:24:24.364Z,57.32
2022-07-29T15:25:33.303Z,56.94
2022-07-29T15:26:45.155Z,56.68
2022-07-29T15:28:00.797Z,56.63
2022-07-29T15:29:13.607Z,56.29
2022-07-29T15:30:31.570Z,54.50
2022-07-29T15:31:45.662Z,54.01
2022-07-29T15:32:56.887Z,53.27
2022-07-29T15:34:06.964Z,52.72
2022-07-29T15:35:18.763Z,51.37
2022-07-29T15:36:50.874Z,50.78
2022-07-29T15:38:03.766Z,50.16
2022-07-29T15:39:12.467Z,48.61
2022-07-29T15:40:23.400Z,47.51
2022-07-29T15:41:34.189Z,47.22
2022-07-29T15:42:42.399Z,47.03
2022-07-29T15:43:50.761Z,46.98
2022-07-29T15:44:59.658Z,46.93
2022-07-29T15:46:27.415Z,46.88